Time;durP1;ratioP1;P1;durP2;ratioP2;P2;SDS_P1;SDS_P2;PMS_P1;PMS_P2;Temp;Humidity;BMP_temperature;BMP_pressure;BME280_temperature;BME280_humidity;BME280_pressure;Samples;Min_cycle;Max_cycle;Signal;HPM_P1;HPM_P2
2022/08/03 00:00:06;;;;;;;1.77;1.02;;;19.00;65.50;19.10;100735.00;;;;4996844;28;111284;-62
2022/08/03 00:02:32;;;;;;;1.05;0.93;;;18.90;65.50;19.10;100735.00;;;;5015619;27;97551;-61
2022/08/03 00:04:57;;;;;;;1.73;1.27;;;18.90;65.70;19.00;100728.00;;;;5017029;27;108194;-61
2022/08/03 00:07:23;;;;;;;1.10;0.95;;;18.90;65.90;19.00;100734.00;;;;5018282;27;111888;-61
2022/08/03 00:09:49;;;;;;;0.70;0.70;;;18.90;66.00;19.00;100729.00;;;;5019999;27;110434;-61
2022/08/03 00:12:15;;;;;;;1.48;1.17;;;18.90;66.00;19.00;100725.00;;;;5004224;27;83605;-61
2022/08/03 00:14:41;;;;;;;1.65;1.00;;;18.90;66.30;19.00;100718.00;;;;5000868;28;95365;-61
2022/08/03 00:17:06;;;;;;;1.52;1.42;;;18.80;66.60;18.90;100720.00;;;;4999147;28;111435;-62
2022/08/03 00:19:33;;;;;;;2.53;1.73;;;18.80;66.60;18.90;100718.00;;;;5000556;28;112675;-61
2022/08/03 00:21:58;;;;;;;1.40;1.10;;;18.90;66.80;18.90;100714.00;;;;5015140;27;82772;-61
2022/08/03 00:24:24;;;;;;;1.98;1.05;;;18.80;66.90;18.90;100717.00;;;;5019711;27;107699;-60
2022/08/03 00:26:50;;;;;;;2.03;1.35;;;18.70;67.00;18.80;100708.00;;;;5020486;27;112842;-60
2022/08/03 00:29:15;;;;;;;1.80;1.25;;;18.70;67.00;18.80;100713.00;;;;5020484;27;112540;-61
2022/08/03 00:31:41;;;;;;;1.00;0.82;;;18.60;67.10;18.70;100709.00;;;;5008545;27;111290;-61
2022/08/03 00:34:07;;;;;;;0.70;0.70;;;18.60;67.30;18.70;100707.00;;;;4999936;28;108953;-61
2022/08/03 00:36:32;;;;;;;2.13;1.20;;;18.60;67.50;18.60;100714.00;;;;5000459;28;108937;-61
2022/08/03 00:38:58;;;;;;;0.85;0.82;;;18.50;67.70;18.60;100708.00;;;;5001308;27;100911;-61
2022/08/03 00:41:24;;;;;;;1.92;1.17;;;18.50;67.90;18.50;100700.00;;;;5000987;28;82583;-61
2022/08/03 00:43:49;;;;;;;0.88;0.88;;;18.40;68.10;18.50;100702.00;;;;5013078;27;108872;-61
2022/08/03 00:46:15;;;;;;;1.17;1.05;;;18.40;68.40;18.50;100715.00;;;;5020154;27;111842;-61
2022/08/03 00:48:41;;;;;;;2.05;1.02;;;18.40;68.70;18.40;100708.00;;;;5020340;27;83888;-61
2022/08/03 00:51:07;;;;;;;1.80;0.90;;;18.30;69.00;18.40;100710.00;;;;5020309;27;86858;-61
2022/08/03 00:53:35;;;;;;;1.30;1.20;;;18.30;69.10;18.30;100706.00;;;;5012190;27;98841;-61
2022/08/03 00:56:00;;;;;;;1.38;1.27;;;18.20;69.20;18.30;100711.00;;;;5014824;27;99280;-61
2022/08/03 00:58:26;;;;;;;1.88;1.10;;;18.20;69.30;18.20;100694.00;;;;4998731;27;112620;-61
2022/08/03 01:00:52;;;;;;;1.45;1.10;;;18.10;69.40;18.20;100701.00;;;;5014083;27;108717;-61
2022/08/03 01:03:17;;;;;;;1.35;1.00;;;18.10;69.60;18.20;100697.00;;;;5005813;27;85242;-61
2022/08/03 01:06:15;;;;;;;2.45;1.05;;;18.00;69.70;18.10;100692.00;;;;5011780;27;90127;-61
2022/08/03 01:08:58;;;;;;;1.88;1.15;;;18.00;70.00;18.10;100699.00;;;;4993848;27;83495;-61
2022/08/03 01:11:49;;;;;;;1.15;0.93;;;18.00;70.00;18.00;100701.00;;;;5015081;27;82640;-60
2022/08/03 01:14:24;;;;;;;1.40;1.30;;;17.90;70.10;18.00;100707.00;;;;5018462;27;82772;-60
2022/08/03 01:17:04;;;;;;;0.93;0.93;;;17.90;70.40;17.90;100701.00;;;;5000464;27;84037;-60
2022/08/03 01:19:51;;;;;;;1.17;1.00;;;17.90;70.60;17.90;100703.00;;;;5014872;27;83577;-61
2022/08/03 01:22:56;;;;;;;1.25;1.20;;;17.80;70.90;17.80;100699.00;;;;5016033;27;101698;-61
2022/08/03 01:25:40;;;;;;;1.00;1.00;;;17.80;71.30;17.80;100705.00;;;;5014160;27;99538;-61
2022/08/03 01:28:41;;;;;;;1.27;1.17;;;17.70;71.40;17.80;100707.00;;;;4998739;28;83553;-61
2022/08/03 01:31:10;;;;;;;1.48;1.00;;;17.70;71.70;17.80;100702.00;;;;5000081;28;83089;-61
2022/08/03 01:33:50;;;;;;;1.48;1.38;;;17.60;71.70;17.80;100698.00;;;;5015724;27;82681;-61
2022/08/03 01:36:22;;;;;;;2.00;1.15;;;17.70;72.10;17.80;100693.00;;;;4999363;27;98553;-61
2022/08/03 01:38:53;;;;;;;1.25;1.15;;;17.70;72.30;17.70;100693.00;;;;5011749;27;104645;-61
2022/08/03 01:41:29;;;;;;;1.55;1.42;;;17.60;72.60;17.70;100695.00;;;;5019699;27;83463;-61
2022/08/03 01:43:59;;;;;;;2.00;1.52;;;17.60;72.80;17.60;100688.00;;;;5003618;27;83094;-61
2022/08/03 01:46:25;;;;;;;1.40;1.30;;;17.50;73.00;17.60;100684.00;;;;5015105;27;81951;-60
2022/08/03 01:48:54;;;;;;;2.55;1.58;;;17.50;73.10;17.60;100691.00;;;;5013630;27;98357;-61
2022/08/03 01:51:21;;;;;;;1.40;1.30;;;17.50;73.40;17.60;100690.00;;;;5014314;27;83808;-61
2022/08/03 01:53:50;;;;;;;1.73;1.50;;;17.50;73.60;17.60;100692.00;;;;5011356;27;101306;-61
2022/08/03 01:56:18;;;;;;;1.52;1.00;;;17.50;73.90;17.60;100685.00;;;;5017649;27;82661;-61
2022/08/03 01:58:45;;;;;;;1.90;1.52;;;17.40;74.10;17.50;100689.00;;;;5017604;27;83213;-61
2022/08/03 02:01:12;;;;;;;1.98;1.23;;;17.40;74.40;17.50;100696.00;;;;5000259;27;111141;-60
2022/08/03 02:03:42;;;;;;;1.33;1.23;;;17.40;74.70;17.50;100691.00;;;;5008260;27;83020;-61
2022/08/03 02:06:10;;;;;;;3.10;1.67;;;17.40;74.90;17.50;100689.00;;;;5000145;27;82545;-61
2022/08/03 02:08:38;;;;;;;4.32;1.35;;;17.40;75.10;17.50;100688.00;;;;5014055;27;83240;-61
2022/08/03 02:11:05;;;;;;;2.90;1.55;;;17.40;75.30;17.50;100690.00;;;;5015335;27;83533;-60
2022/08/03 02:13:33;;;;;;;1.25;1.15;;;17.40;75.60;17.40;100696.00;;;;5008719;27;82742;-61
2022/08/03 02:16:02;;;;;;;1.95;1.77;;;17.40;75.80;17.50;100689.00;;;;5017751;27;82617;-61
2022/08/03 02:18:28;;;;;;;1.40;1.13;;;17.30;75.90;17.40;100691.00;;;;5018985;27;84233;-61
2022/08/03 02:20:55;;;;;;;2.25;1.63;;;17.30;76.00;17.40;100686.00;;;;5004664;27;113457;-61
2022/08/03 02:23:20;;;;;;;2.30;1.20;;;17.30;76.30;17.40;100687.00;;;;5022395;27;88178;-61
2022/08/03 02:25:52;;;;;;;1.63;1.40;;;17.30;76.60;17.40;100682.00;;;;5017683;27;109038;-61
2022/08/03 02:28:21;;;;;;;1.23;1.10;;;17.30;77.00;17.40;100673.00;;;;5019645;27;83847;-61
2022/08/03 02:30:54;;;;;;;1.83;1.55;;;17.30;77.20;17.30;100685.00;;;;5012385;27;102470;-61
2022/08/03 02:33:29;;;;;;;2.15;1.35;;;17.30;77.70;17.30;100680.00;;;;4997961;27;82727;-61
2022/08/03 02:35:59;;;;;;;1.65;1.50;;;17.20;78.00;17.20;100679.00;;;;5023569;27;100193;-61
2022/08/03 02:38:36;;;;;;;1.67;1.52;;;17.20;78.50;17.20;100680.00;;;;5017153;27;82746;-61
2022/08/03 02:41:07;;;;;;;2.13;1.42;;;17.10;78.90;17.10;100677.00;;;;5017117;27;82749;-61
2022/08/03 02:43:34;;;;;;;2.33;1.77;;;17.10;79.50;17.10;100680.00;;;;5006624;27;83483;-61
2022/08/03 02:46:00;;;;;;;1.70;1.55;;;17.00;80.20;17.10;100675.00;;;;5013237;27;82837;-61
2022/08/03 02:48:29;;;;;;;1.33;1.10;;;17.00;80.70;17.10;100666.00;;;;4997354;28;101493;-61
2022/08/03 02:50:58;;;;;;;1.40;1.30;;;17.00;81.20;17.00;100670.00;;;;4998838;28;83707;-61
2022/08/03 02:53:26;;;;;;;2.70;1.52;;;16.90;81.70;17.00;100671.00;;;;5006492;27;82880;-61
2022/08/03 02:55:54;;;;;;;1.45;1.35;;;16.90;82.00;16.90;100671.00;;;;5018369;27;93399;-60
2022/08/03 02:58:22;;;;;;;2.35;1.42;;;16.90;82.30;16.90;100677.00;;;;5015391;27;111767;-61
2022/08/03 03:00:50;;;;;;;2.30;1.40;;;16.80;82.50;16.90;100679.00;;;;5017653;27;82924;-60
2022/08/03 03:03:17;;;;;;;1.70;1.60;;;16.80;82.90;16.80;100677.00;;;;5010276;27;82788;-60
2022/08/03 03:05:44;;;;;;;1.27;1.17;;;16.70;83.20;16.80;100675.00;;;;4997607;28;104716;-60
2022/08/03 03:08:16;;;;;;;1.70;1.60;;;16.70;83.70;16.80;100679.00;;;;4997254;28;112967;-61
2022/08/03 03:10:43;;;;;;;1.55;1.45;;;16.70;84.40;16.70;100677.00;;;;4999171;28;84602;-61
2022/08/03 03:13:10;;;;;;;1.70;1.40;;;16.60;84.80;16.60;100681.00;;;;5018317;27;82665;-61
2022/08/03 03:15:38;;;;;;;2.05;1.27;;;16.50;85.10;16.60;100674.00;;;;5015603;27;108815;-60
2022/08/03 03:18:06;;;;;;;2.75;1.65;;;16.50;85.50;16.60;100676.00;;;;5016479;27;84175;-61
2022/08/03 03:20:34;;;;;;;1.88;1.77;;;16.50;86.00;16.60;100673.00;;;;5011046;27;84172;-61
2022/08/03 03:23:01;;;;;;;2.42;1.30;;;16.50;86.40;16.50;100663.00;;;;5002371;27;82597;-61
2022/08/03 03:25:30;;;;;;;3.17;1.50;;;16.40;86.90;16.50;100665.00;;;;5017172;27;81984;-60
2022/08/03 03:27:58;;;;;;;5.35;1.98;;;16.30;87.50;16.40;100672.00;;;;5033399;27;83497;-60
2022/08/03 03:30:25;;;;;;;2.10;1.75;;;16.30;88.00;16.30;100676.00;;;;5015090;27;92037;-61
2022/08/03 03:32:51;;;;;;;1.58;1.48;;;16.30;88.40;16.30;100665.00;;;;4997362;27;84117;-61
2022/08/03 03:35:17;;;;;;;2.42;1.65;;;16.20;89.00;16.30;100663.00;;;;5012538;27;85079;-61
2022/08/03 03:37:43;;;;;;;1.40;1.27;;;16.20;89.50;16.20;100669.00;;;;5001963;27;84691;-61
2022/08/03 03:40:09;;;;;;;1.55;1.27;;;16.20;90.00;16.20;100671.00;;;;5016232;27;83803;-61
2022/08/03 03:42:37;;;;;;;4.57;2.30;;;16.10;90.20;16.20;100669.00;;;;5018261;27;83017;-61
2022/08/03 03:45:05;;;;;;;1.80;1.63;;;16.10;90.40;16.10;100668.00;;;;4998468;27;82976;-62
2022/08/03 03:47:31;;;;;;;1.73;1.38;;;16.10;90.70;16.10;100661.00;;;;4997409;28;83426;-61
2022/08/03 03:49:57;;;;;;;1.63;1.50;;;16.10;90.90;16.10;100664.00;;;;5012385;27;112489;-61
2022/08/03 03:52:23;;;;;;;2.03;1.55;;;16.00;91.10;16.10;100670.00;;;;5011979;27;109871;-61
2022/08/03 03:54:48;;;;;;;1.23;1.02;;;16.00;91.30;16.10;100668.00;;;;5014594;27;108223;-61
2022/08/03 03:57:14;;;;;;;1.48;1.38;;;16.00;91.40;16.20;100671.00;;;;5016967;27;114284;-61
2022/08/03 03:59:41;;;;;;;1.45;1.35;;;16.10;91.50;16.20;100666.00;;;;5017562;27;111828;-61
2022/08/03 04:02:08;;;;;;;1.23;1.13;;;16.10;91.60;16.30;100668.00;;;;5017299;27;101540;-61
2022/08/03 04:13:03;;;;;;;1.60;1.50;;;16.30;92.10;16.60;100678.00;;;;5005364;27;82547;-61
2022/08/03 04:15:32;;;;;;;1.83;1.60;;;16.40;92.10;16.60;100665.00;;;;5014339;27;81973;-62
2022/08/03 04:17:58;;;;;;;1.58;1.48;;;16.50;92.20;16.70;100674.00;;;;4997174;27;111584;-61
2022/08/03 04:20:29;;;;;;;2.65;1.13;;;16.50;92.40;16.70;100674.00;;;;5012271;27;111291;-62
2022/08/03 04:22:59;;;;;;;1.60;1.50;;;16.70;92.60;16.80;100676.00;;;;5013052;27;83767;-62
2022/08/03 04:25:29;;;;;;;1.70;1.60;;;16.60;92.70;16.80;100684.00;;;;5017586;27;82534;-62
2022/08/03 04:27:58;;;;;;;1.70;1.60;;;16.70;92.80;16.90;100678.00;;;;5016146;27;99188;-61
2022/08/03 04:30:27;;;;;;;2.00;1.42;;;16.80;93.00;17.00;100685.00;;;;5015604;27;82808;-61
2022/08/03 04:32:55;;;;;;;1.40;1.30;;;16.90;93.10;17.10;100688.00;;;;5009783;27;102235;-62
2022/08/03 04:35:23;;;;;;;1.88;1.20;;;17.00;93.20;17.20;100693.00;;;;4999259;27;82691;-62
2022/08/03 04:37:51;;;;;;;1.85;1.15;;;17.10;93.20;17.30;100680.00;;;;4998046;27;93824;-62
2022/08/03 04:40:27;;;;;;;2.40;1.20;;;17.20;93.30;17.40;100679.00;;;;4994148;27;93967;-62
2022/08/03 04:42:54;;;;;;;1.52;1.40;;;17.30;93.30;17.60;100678.00;;;;4991865;27;93210;-62
2022/08/03 04:45:20;;;;;;;2.45;2.03;;;17.40;93.30;17.70;100686.00;;;;4992769;27;82968;-62
2022/08/03 04:47:46;;;;;;;2.47;2.25;;;17.50;93.20;17.80;100688.00;;;;4990170;27;113971;-62
2022/08/03 04:50:12;;;;;;;2.60;1.77;;;17.70;93.20;18.00;100688.00;;;;4994361;27;112226;-62
2022/08/03 04:52:38;;;;;;;1.90;1.38;;;17.80;93.10;18.10;100685.00;;;;4991176;27;102103;-62
2022/08/03 04:55:05;;;;;;;1.80;1.70;;;17.90;92.90;18.20;100688.00;;;;4994123;27;109587;-62
2022/08/03 04:57:30;;;;;;;2.40;1.77;;;18.10;92.70;18.40;100691.00;;;;4999713;27;96672;-62
2022/08/03 04:59:56;;;;;;;1.60;1.25;;;18.20;92.50;18.50;100698.00;;;;4997088;27;91985;-62
2022/08/03 05:02:22;;;;;;;2.42;1.73;;;18.40;92.40;18.70;100692.00;;;;4995424;27;110048;-63
2022/08/03 05:04:49;;;;;;;1.75;1.20;;;18.50;92.20;18.90;100699.00;;;;4997252;27;81793;-62
2022/08/03 05:07:16;;;;;;;1.15;1.05;;;18.70;92.10;19.10;100697.00;;;;5000058;27;82638;-62
2022/08/03 05:09:42;;;;;;;2.08;1.70;;;18.80;91.90;19.30;100706.00;;;;4996187;27;102629;-62
2022/08/03 05:12:08;;;;;;;2.08;1.77;;;19.00;91.70;19.50;100705.00;;;;4997665;27;83724;-62
2022/08/03 05:14:38;;;;;;;1.83;1.45;;;19.20;91.50;19.60;100704.00;;;;4996877;27;82872;-63
2022/08/03 05:17:05;;;;;;;1.98;1.77;;;19.40;91.30;19.90;100707.00;;;;4997566;27;82627;-63
2022/08/03 05:19:31;;;;;;;3.50;1.88;;;19.60;91.00;20.10;100707.00;;;;4996520;27;83258;-63
2022/08/03 05:21:57;;;;;;;1.65;1.45;;;19.80;90.70;20.20;100703.00;;;;4996645;27;82704;-62
2022/08/03 05:24:23;;;;;;;1.63;1.52;;;20.00;90.50;20.40;100707.00;;;;5000808;27;82972;-63
2022/08/03 05:26:49;;;;;;;1.52;1.40;;;20.20;90.20;20.60;100707.00;;;;4997504;27;86374;-63
2022/08/03 05:29:15;;;;;;;2.35;1.80;;;20.40;90.00;20.80;100711.00;;;;4996546;27;83634;-63
2022/08/03 05:31:40;;;;;;;4.63;1.52;;;20.50;89.60;21.00;100713.00;;;;4995108;27;110461;-63
2022/08/03 05:34:06;;;;;;;1.42;1.33;;;20.80;89.00;21.30;100717.00;;;;4996847;27;82643;-63
2022/08/03 05:36:32;;;;;;;2.90;1.83;;;21.00;88.50;21.50;100707.00;;;;4998513;27;112448;-63
2022/08/03 05:38:57;;;;;;;2.35;2.15;;;21.20;88.00;21.70;100708.00;;;;4998792;27;114388;-63
2022/08/03 05:41:23;;;;;;;2.25;1.40;;;21.40;87.30;22.00;100713.00;;;;4995151;27;111675;-63
2022/08/03 05:43:50;;;;;;;1.95;1.73;;;21.70;86.80;22.20;100716.00;;;;4995038;27;109729;-62
2022/08/03 05:46:16;;;;;;;2.00;1.55;;;21.90;86.00;22.40;100718.00;;;;4995094;27;85504;-63
2022/08/03 05:48:42;;;;;;;1.90;1.70;;;22.10;85.30;22.60;100721.00;;;;4994787;27;110758;-63
2022/08/03 05:51:09;;;;;;;2.33;1.75;;;22.30;84.60;22.90;100726.00;;;;4994702;27;111816;-63
2022/08/03 05:53:36;;;;;;;2.17;1.33;;;22.50;83.70;23.00;100728.00;;;;4996639;27;82059;-63
2022/08/03 05:56:02;;;;;;;1.30;1.20;;;22.70;82.70;23.20;100732.00;;;;4999989;27;83847;-63
2022/08/03 05:58:28;;;;;;;5.63;1.83;;;22.90;82.00;23.40;100720.00;;;;4995452;27;97366;-63
2022/08/03 06:00:54;;;;;;;2.47;1.50;;;23.10;81.30;23.60;100724.00;;;;4995065;27;83590;-63
2022/08/03 06:03:20;;;;;;;2.90;1.25;;;23.30;80.90;23.80;100731.00;;;;5001751;27;108636;-63
2022/08/03 06:05:46;;;;;;;1.77;1.50;;;23.50;80.20;24.00;100725.00;;;;5001406;27;113783;-63
2022/08/03 06:08:12;;;;;;;1.50;1.40;;;23.70;79.40;24.20;100734.00;;;;4998025;27;112618;-63
2022/08/03 06:10:37;;;;;;;1.70;0.95;;;23.90;78.70;24.40;100734.00;;;;4995277;27;82639;-63
2022/08/03 06:13:04;;;;;;;1.48;1.40;;;24.10;78.00;24.60;100738.00;;;;4995869;27;86783;-63
2022/08/03 06:15:32;;;;;;;1.63;1.52;;;24.30;77.40;24.90;100732.00;;;;4995569;27;83484;-63
2022/08/03 06:17:58;;;;;;;1.88;1.63;;;24.50;76.40;25.10;100734.00;;;;5001424;27;83561;-62
2022/08/03 06:20:24;;;;;;;1.52;1.42;;;24.80;75.80;25.30;100732.00;;;;4996754;27;82766;-63
2022/08/03 06:22:49;;;;;;;1.88;1.17;;;25.00;74.80;25.50;100738.00;;;;4995024;27;98350;-63
2022/08/03 06:25:15;;;;;;;2.80;1.10;;;25.20;73.90;25.70;100736.00;;;;4994941;27;113068;-63
2022/08/03 06:27:42;;;;;;;1.80;1.00;;;25.40;72.90;25.90;100744.00;;;;5001592;27;83997;-63
2022/08/03 06:30:10;;;;;;;1.95;1.73;;;25.60;72.10;26.10;100744.00;;;;4970890;27;96757;-63
2022/08/03 06:32:37;;;;;;;1.27;0.93;;;25.80;71.30;26.30;100747.00;;;;4993311;27;83062;-64
2022/08/03 06:35:05;;;;;;;1.60;1.33;;;26.00;70.40;26.50;100746.00;;;;4995141;27;83858;-64
2022/08/03 06:37:31;;;;;;;1.67;1.20;;;26.20;69.20;26.60;100745.00;;;;5002088;27;82876;-64
2022/08/03 06:39:56;;;;;;;2.25;1.70;;;26.40;68.40;26.80;100749.00;;;;4994598;27;110364;-64
2022/08/03 06:42:22;;;;;;;1.08;0.95;;;26.50;67.70;27.00;100747.00;;;;4994305;27;109491;-64
2022/08/03 06:44:48;;;;;;;2.28;1.65;;;26.70;66.80;27.10;100752.00;;;;4994848;27;111146;-64
2022/08/03 06:47:13;;;;;;;2.40;1.45;;;26.80;65.50;27.20;100745.00;;;;4994237;27;103468;-63
2022/08/03 06:49:40;;;;;;;1.25;1.15;;;26.90;65.10;27.40;100750.00;;;;4994151;27;110046;-63
2022/08/03 06:52:06;;;;;;;1.00;1.00;;;27.20;64.80;27.60;100755.00;;;;4993050;27;82752;-64
2022/08/03 06:54:31;;;;;;;0.93;0.93;;;27.30;64.00;27.90;100753.00;;;;4994500;27;112291;-64
2022/08/03 06:56:57;;;;;;;1.25;1.15;;;27.50;63.30;28.10;100753.00;;;;5001249;27;82978;-64
2022/08/03 06:59:22;;;;;;;1.92;1.52;;;27.70;62.30;28.40;100753.00;;;;4991657;27;109529;-64
2022/08/03 07:01:48;;;;;;;1.30;1.20;;;28.00;61.50;28.60;100753.00;;;;4994175;27;108774;-64
2022/08/03 07:04:14;;;;;;;4.65;1.65;;;28.20;59.90;28.70;100753.00;;;;4994162;27;113022;-64
2022/08/03 07:06:39;;;;;;;2.05;1.55;;;28.40;59.00;28.80;100759.00;;;;5000317;27;113603;-64
2022/08/03 07:09:05;;;;;;;1.63;1.52;;;28.50;58.70;29.00;100762.00;;;;4996089;27;82612;-64
2022/08/03 07:11:31;;;;;;;1.65;1.15;;;28.70;58.60;29.30;100762.00;;;;4994656;27;84252;-64
2022/08/03 07:13:57;;;;;;;1.58;1.00;;;28.90;58.20;29.50;100761.00;;;;4993757;27;84185;-64
2022/08/03 07:16:22;;;;;;;1.77;1.40;;;29.20;57.70;29.70;100755.00;;;;4994488;27;114248;-65
2022/08/03 07:18:48;;;;;;;2.90;1.30;;;29.40;57.20;30.00;100756.00;;;;4996025;27;109764;-64
2022/08/03 07:21:15;;;;;;;1.40;1.13;;;29.60;56.60;30.20;100760.00;;;;4992741;27;108348;-64
2022/08/03 07:23:41;;;;;;;5.22;1.17;;;29.90;56.00;30.50;100760.00;;;;4994663;27;83772;-64
2022/08/03 07:26:07;;;;;;;1.58;1.48;;;30.10;55.50;30.70;100768.00;;;;4994628;27;112489;-65
2022/08/03 07:28:33;;;;;;;1.10;1.00;;;30.30;54.80;30.90;100764.00;;;;4999862;27;110239;-65
2022/08/03 07:30:58;;;;;;;1.80;1.10;;;30.50;54.50;31.10;100768.00;;;;4994794;27;105764;-65
2022/08/03 07:33:24;;;;;;;1.58;1.15;;;30.70;54.00;31.40;100762.00;;;;4995070;27;83618;-65
2022/08/03 07:35:50;;;;;;;1.55;1.45;;;31.00;53.20;31.50;100761.00;;;;4998389;27;82919;-65
2022/08/03 07:38:16;;;;;;;1.95;1.50;;;31.10;51.80;31.50;100761.00;;;;5005961;27;91977;-64
2022/08/03 07:40:42;;;;;;;1.25;0.93;;;31.20;51.40;31.70;100757.00;;;;4995001;27;82831;-64
2022/08/03 07:43:08;;;;;;;1.35;1.25;;;31.30;51.00;31.80;100758.00;;;;4994062;27;113170;-64
2022/08/03 07:45:33;;;;;;;1.15;1.05;;;31.40;50.20;31.80;100764.00;;;;4994319;27;83857;-63
2022/08/03 07:48:00;;;;;;;2.10;1.17;;;31.50;50.00;31.90;100763.00;;;;5001540;27;108590;-64
2022/08/03 07:50:25;;;;;;;8.00;1.67;;;31.60;49.90;32.10;100752.00;;;;4998870;27;82632;-64
2022/08/03 07:52:52;;;;;;;1.40;1.10;;;31.70;49.70;32.40;100744.00;;;;4993093;27;110960;-64
2022/08/03 07:55:21;;;;;;;1.40;1.23;;;31.90;49.50;32.60;100748.00;;;;4995405;27;83002;-64
2022/08/03 07:58:08;;;;;;;2.22;1.38;;;32.10;48.90;32.80;100761.00;;;;4994358;27;82752;-64
2022/08/03 08:00:35;;;;;;;1.25;1.13;;;32.40;48.70;33.00;100743.00;;;;4994440;27;82658;-64
2022/08/03 08:03:01;;;;;;;1.63;1.13;;;32.60;47.90;33.20;100756.00;;;;4994181;27;84051;-64
2022/08/03 08:05:28;;;;;;;1.23;1.13;;;32.70;47.60;33.40;100756.00;;;;4995376;27;85264;-64
2022/08/03 08:07:54;;;;;;;2.33;1.23;;;33.00;47.40;33.50;100746.00;;;;5001363;27;82773;-64
2022/08/03 08:10:20;;;;;;;1.05;0.95;;;33.20;47.10;33.70;100751.00;;;;4994468;27;82690;-64
2022/08/03 08:12:46;;;;;;;1.42;1.33;;;33.40;46.70;34.00;100744.00;;;;4994050;27;83358;-64
2022/08/03 08:15:12;;;;;;;1.00;0.90;;;33.60;46.20;34.20;100747.00;;;;4994273;27;84115;-65
2022/08/03 08:17:44;;;;;;;0.93;0.93;;;33.70;46.00;34.40;100746.00;;;;4995077;27;83060;-65
2022/08/03 08:20:14;;;;;;;2.33;1.13;;;34.00;45.60;34.60;100745.00;;;;4993798;27;82060;-64
2022/08/03 08:22:39;;;;;;;1.33;1.02;;;34.10;45.10;34.70;100752.00;;;;4993345;27;105054;-64
2022/08/03 08:25:06;;;;;;;0.90;0.73;;;34.40;44.90;34.90;100747.00;;;;4993918;27;82783;-64
2022/08/03 08:27:31;;;;;;;0.82;0.82;;;34.50;44.60;35.10;100741.00;;;;4994736;27;83782;-64
2022/08/03 08:29:57;;;;;;;1.48;1.05;;;34.70;44.40;35.30;100740.00;;;;4995258;27;108658;-64
2022/08/03 08:32:23;;;;;;;2.55;1.00;;;34.90;44.20;35.50;100744.00;;;;4996447;27;112180;-65
2022/08/03 08:34:48;;;;;;;2.42;1.08;;;35.10;43.80;35.70;100748.00;;;;5002533;27;112075;-64
2022/08/03 08:37:14;;;;;;;1.20;1.00;;;35.30;43.20;35.90;100739.00;;;;4998901;27;93061;-65
2022/08/03 08:39:40;;;;;;;2.33;1.00;;;35.50;42.70;36.00;100743.00;;;;4998741;27;108512;-65
2022/08/03 08:42:05;;;;;;;1.30;1.20;;;35.60;42.50;36.10;100741.00;;;;5001942;27;112435;-64
2022/08/03 08:44:31;;;;;;;1.15;1.05;;;35.70;42.50;36.30;100750.00;;;;4996357;27;110523;-65
2022/08/03 08:47:02;;;;;;;1.70;1.23;;;35.90;42.30;36.40;100750.00;;;;4997057;27;110291;-64
2022/08/03 08:49:28;;;;;;;1.75;0.88;;;36.00;41.80;36.50;100750.00;;;;4996881;27;82635;-65
2022/08/03 08:51:56;;;;;;;2.05;1.02;;;36.10;41.40;36.60;100751.00;;;;4993012;27;114670;-65
2022/08/03 08:54:23;;;;;;;1.20;1.00;;;36.20;41.10;36.60;100742.00;;;;4994759;27;102791;-64
2022/08/03 08:56:53;;;;;;;0.90;0.88;;;36.30;40.60;36.70;100739.00;;;;4997411;27;93117;-64
2022/08/03 08:59:20;;;;;;;1.70;1.40;;;36.30;40.10;36.70;100741.00;;;;5003385;27;108971;-65
2022/08/03 09:01:46;;;;;;;0.75;0.75;;;36.40;39.60;36.80;100735.00;;;;4994308;27;87535;-65
2022/08/03 09:04:12;;;;;;;1.65;0.98;;;36.50;39.40;36.90;100748.00;;;;4993613;27;112714;-65
2022/08/03 09:06:37;;;;;;;1.20;1.02;;;36.50;39.20;37.00;100741.00;;;;4995079;27;103665;-64
2022/08/03 09:09:05;;;;;;;1.00;0.75;;;36.60;38.90;37.00;100738.00;;;;4998084;27;107768;-65
2022/08/03 09:11:31;;;;;;;0.75;0.75;;;36.70;38.50;37.00;100738.00;;;;5001684;27;84049;-65
2022/08/03 09:13:58;;;;;;;1.55;1.10;;;36.70;38.50;37.10;100735.00;;;;4995411;27;112641;-65
2022/08/03 09:16:23;;;;;;;0.98;0.88;;;36.70;37.90;37.10;100745.00;;;;4996549;27;110860;-65
2022/08/03 09:18:53;;;;;;;1.70;1.17;;;36.70;37.80;37.20;100737.00;;;;5000740;27;107913;-64
2022/08/03 09:21:25;;;;;;;1.70;1.02;;;36.80;37.00;37.10;100735.00;;;;4997472;27;84004;-64
2022/08/03 09:23:56;;;;;;;1.00;0.93;;;36.80;36.40;36.90;100734.00;;;;4996487;27;83360;-65
2022/08/03 09:26:28;;;;;;;0.82;0.82;;;36.50;36.90;36.90;100728.00;;;;5006222;27;82554;-65
2022/08/03 09:29:05;;;;;;;0.90;0.90;;;36.50;37.30;36.90;100731.00;;;;5006939;27;82617;-65
2022/08/03 09:31:43;;;;;;;1.30;0.90;;;36.50;37.40;37.10;100736.00;;;;5004309;27;82606;-63
2022/08/03 09:34:15;;;;;;;1.10;0.80;;;36.60;37.50;37.20;100725.00;;;;4996120;27;82749;-64
2022/08/03 09:36:47;;;;;;;0.85;0.73;;;36.70;37.20;37.40;100734.00;;;;4996084;27;82521;-65
2022/08/03 09:39:14;;;;;;;1.90;1.10;;;36.80;37.30;37.60;100728.00;;;;5003118;27;82504;-65
2022/08/03 09:41:47;;;;;;;1.30;1.02;;;37.00;37.10;37.70;100729.00;;;;5003306;27;84796;-65
2022/08/03 09:44:13;;;;;;;0.95;0.63;;;37.20;36.70;37.80;100734.00;;;;4995899;27;84273;-65
2022/08/03 09:46:57;;;;;;;1.30;0.80;;;37.20;36.40;37.80;100726.00;;;;4996141;27;85038;-64
2022/08/03 09:49:23;;;;;;;1.00;0.77;;;37.30;36.30;37.80;100723.00;;;;4994695;27;107785;-65
2022/08/03 09:51:49;;;;;;;0.80;0.80;;;37.30;35.90;37.90;100726.00;;;;4996763;27;111967;-64
2022/08/03 09:54:29;;;;;;;0.75;0.63;;;37.40;36.00;38.10;100728.00;;;;4996393;27;83783;-65
2022/08/03 09:56:56;;;;;;;1.23;0.80;;;37.50;36.00;38.20;100726.00;;;;4995650;27;82795;-64
2022/08/03 09:59:30;;;;;;;0.68;0.68;;;37.60;35.70;38.20;100712.00;;;;4996155;27;82033;-65
2022/08/03 10:01:57;;;;;;;0.90;0.80;;;37.60;35.40;38.20;100716.00;;;;4997162;27;86873;-64
2022/08/03 10:04:23;;;;;;;1.58;1.42;;;37.60;35.30;38.20;100713.00;;;;5008092;27;83649;-65
2022/08/03 10:07:05;;;;;;;1.90;0.88;;;37.70;35.00;38.30;100709.00;;;;4995919;27;83690;-66
2022/08/03 10:09:31;;;;;;;1.40;1.17;;;37.70;35.10;38.40;100714.00;;;;4995568;27;82872;-66
2022/08/03 10:12:06;;;;;;;0.95;0.80;;;37.80;34.90;38.40;100716.00;;;;4997590;27;84047;-65
2022/08/03 10:14:32;;;;;;;1.70;0.93;;;37.80;34.70;38.60;100712.00;;;;4993400;27;99910;-66
2022/08/03 10:16:58;;;;;;;1.05;0.60;;;37.90;35.00;38.80;100713.00;;;;4997141;27;111058;-66
2022/08/03 10:19:24;;;;;;;1.20;0.90;;;38.10;34.60;39.00;100706.00;;;;4994914;27;108257;-64
2022/08/03 10:21:55;;;;;;;0.75;0.75;;;38.30;34.20;39.20;100706.00;;;;4997349;27;84383;-65
2022/08/03 10:24:28;;;;;;;1.17;1.08;;;38.40;34.10;39.40;100716.00;;;;4993444;27;84175;-65
2022/08/03 10:27:06;;;;;;;1.05;0.77;;;38.60;34.10;39.50;100706.00;;;;5004486;27;93464;-65
2022/08/03 10:29:37;;;;;;;0.80;0.80;;;38.70;33.70;39.70;100703.00;;;;4995320;27;82733;-65
2022/08/03 10:32:09;;;;;;;4.35;0.82;;;38.80;33.50;39.90;100710.00;;;;4995039;27;83782;-65
2022/08/03 10:34:41;;;;;;;0.85;0.50;;;39.00;33.20;40.10;100700.00;;;;4993538;27;83834;-66
2022/08/03 10:37:11;;;;;;;1.23;0.75;;;39.20;33.10;40.30;100704.00;;;;4995126;27;85976;-66
2022/08/03 10:39:37;;;;;;;1.15;0.77;;;39.40;32.80;40.30;100703.00;;;;5000015;27;82681;-65
2022/08/03 10:42:04;;;;;;;0.98;0.75;;;39.50;32.10;40.50;100709.00;;;;4996146;27;102462;-66
2022/08/03 10:44:38;;;;;;;2.85;0.73;;;39.60;31.90;40.60;100700.00;;;;4992549;27;101763;-65
2022/08/03 10:47:05;;;;;;;0.93;0.60;;;39.70;31.20;40.70;100705.00;;;;4993081;27;83371;-65
2022/08/03 10:49:31;;;;;;;2.08;0.73;;;39.70;31.20;40.80;100700.00;;;;4994744;27;109241;-65
2022/08/03 10:51:57;;;;;;;0.80;0.70;;;39.90;31.20;41.00;100701.00;;;;4992886;27;102504;-65
2022/08/03 10:57:55;;;;;;;0.73;0.50;;;40.30;31.30;41.50;100696.00;;;;4999472;27;83777;-65
2022/08/03 11:00:26;;;;;;;1.77;0.70;;;40.60;30.00;41.60;100701.00;;;;5003063;27;82737;-66